createdAt,value
2023-04-17T00:00:31.400Z,98554.88
2023-04-17T00:01:33.397Z,98549.69
2023-04-17T00:02:39.808Z,98543.66
2023-04-17T00:03:42.088Z,98544.50
2023-04-17T00:04:45.584Z,98550.63
2023-04-17T00:05:49.029Z,98544.50
2023-04-17T00:06:53.926Z,98548.88
2023-04-17T00:07:57.111Z,98551.47
2023-04-17T00:08:59.900Z,98538.59
2023-04-17T00:10:01.935Z,98542.84
2023-04-17T00:11:08.495Z,98540.38
2023-04-17T00:12:10.820Z,98549.13
2023-04-17T00:13:13.605Z,98542.22
2023-04-17T00:14:15.501Z,98542.22
2023-04-17T00:15:18.358Z,98544.00
2023-04-17T00:16:20.222Z,98533.97
2023-04-17T00:17:23.094Z,98542.00
2023-04-17T00:18:24.909Z,98538.78
2023-04-17T00:19:27.883Z,98543.28
2023-04-17T00:20:30.475Z,98542.56
2023-04-17T00:21:34.645Z,98545.16
2023-04-17T00:22:37.086Z,98545.41
2023-04-17T00:23:39.935Z,98542.06
2023-04-17T00:24:41.848Z,98543.16
2023-04-17T00:25:44.650Z,98542.44
2023-04-17T00:26:46.517Z,98536.75
2023-04-17T00:27:50.317Z,98537.81
2023-04-17T00:28:52.158Z,98546.88
2023-04-17T00:29:55.022Z,98535.31
2023-04-17T00:30:58.252Z,98528.88
2023-04-17T00:32:01.349Z,98544.31
2023-04-17T00:33:03.366Z,98534.81
2023-04-17T00:34:06.200Z,98535.59
2023-04-17T00:35:08.740Z,98536.25
2023-04-17T00:36:13.514Z,98542.22
2023-04-17T00:37:16.725Z,98542.03
2023-04-17T00:38:19.607Z,98535.63
2023-04-17T00:39:21.529Z,98538.03
2023-04-17T00:40:24.416Z,98540.44
2023-04-17T00:41:27.427Z,98535.88
2023-04-17T00:42:30.227Z,98539.09
2023-04-17T00:43:32.173Z,98542.25
2023-04-17T00:44:35.035Z,98534.78
2023-04-17T00:45:37.085Z,98534.16
2023-04-17T00:46:41.008Z,98538.91
2023-04-17T00:47:42.952Z,98543.69
2023-04-17T00:48:46.190Z,98543.34
2023-04-17T00:49:48.257Z,98545.53
2023-04-17T00:50:51.945Z,98545.00
2023-04-17T00:51:54.141Z,98548.53
2023-04-17T00:52:59.480Z,98545.53
2023-04-17T00:54:01.643Z,98546.75
2023-04-17T00:55:06.632Z,98547.28
2023-04-17T00:56:08.546Z,98548.63
2023-04-17T00:57:11.874Z,98547.16
2023-04-17T00:58:13.965Z,98549.09
2023-04-17T00:59:18.654Z,98553.75
2023-04-17T01:00:22.053Z,98548.88
2023-04-17T01:01:24.892Z,98552.50
2023-04-17T01:02:27.222Z,98556.22
2023-04-17T01:03:33.083Z,98553.19
2023-04-17T01:04:35.914Z,98543.31
2023-04-17T01:05:39.052Z,98558.41
2023-04-17T01:06:41.858Z,98551.13
2023-04-17T01:07:45.073Z,98552.44
2023-04-17T01:08:49.608Z,98544.97
2023-04-17T01:09:53.216Z,98551.28
2023-04-17T01:10:55.584Z,98548.91
2023-04-17T01:12:16.951Z,98555.06
2023-04-17T01:13:19.756Z,98545.84
2023-04-17T01:14:21.902Z,98549.63
2023-04-17T01:15:25.034Z,98555.84
2023-04-17T01:16:27.589Z,98550.03
2023-04-17T01:17:30.780Z,98546.06
2023-04-17T01:18:32.675Z,98542.75
2023-04-17T01:19:35.468Z,98546.44
2023-04-17T01:20:37.759Z,98548.31
2023-04-17T01:21:40.553Z,98547.56
2023-04-17T01:22:42.453Z,98547.84
2023-04-17T01:23:48.551Z,98548.03
2023-04-17T01:24:51.765Z,98549.81
2023-04-17T01:25:54.666Z,98544.63
2023-04-17T01:26:58.691Z,98540.38
2023-04-17T01:28:01.626Z,98538.91
2023-04-17T01:29:04.778Z,98547.28
2023-04-17T01:30:09.320Z,98543.88
2023-04-17T01:31:18.501Z,98545.63
2023-04-17T01:32:21.649Z,98543.16
2023-04-17T01:33:24.320Z,98548.50
2023-04-17T01:34:27.166Z,98544.53
2023-04-17T01:35:29.070Z,98550.81
2023-04-17T01:36:32.420Z,98543.53
2023-04-17T01:37:34.412Z,98547.31
2023-04-17T01:38:37.214Z,98540.75
2023-04-17T01:39:39.065Z,98549.50
2023-04-17T01:40:43.183Z,98541.09
2023-04-17T01:41:45.025Z,98545.44
2023-04-17T01:42:48.428Z,98535.22
2023-04-17T01:43:50.412Z,98551.53
2023-04-17T01:44:53.820Z,98547.19
2023-04-17T01:45:56.161Z,98542.97
2023-04-17T01:46:58.992Z,98545.53
2023-04-17T01:48:01.343Z,98548.03
2023-04-17T01:49:04.242Z,98542.78
2023-04-17T01:50:09.045Z,98541.66
2023-04-17T01:51:11.863Z,98540.75
2023-04-17T01:52:13.997Z,98545.94
2023-04-17T01:53:16.814Z,98541.50
2023-04-17T01:54:18.695Z,98538.81
2023-04-17T01:55:21.951Z,98545.28
2023-04-17T01:56:26.083Z,98537.97
2023-04-17T01:57:29.055Z,98543.59
2023-04-17T01:58:31.394Z,98538.91
2023-04-17T01:59:34.663Z,98538.44
2023-04-17T02:00:36.493Z,98537.97
2023-04-17T02:01:40.102Z,98535.06
2023-04-17T02:02:42.126Z,98546.81
2023-04-17T02:03:45.246Z,98543.03
2023-04-17T02:04:47.226Z,98542.63
2023-04-17T02:05:50.109Z,98545.75
2023-04-17T02:06:52.284Z,98540.38
2023-04-17T02:07:55.278Z,98540.31
2023-04-17T02:08:57.115Z,98539.38
2023-04-17T02:09:59.897Z,98537.63
2023-04-17T02:11:02.636Z,98544.34
2023-04-17T02:12:07.642Z,98542.69
2023-04-17T02:13:10.389Z,98546.19
2023-04-17T02:14:16.642Z,98550.66
2023-04-17T02:15:18.539Z,98545.66
2023-04-17T02:16:22.535Z,98545.94
2023-04-17T02:17:24.623Z,98545.22
2023-04-17T02:18:27.765Z,98549.56
2023-04-17T02:19:29.549Z,98552.16
2023-04-17T02:20:32.488Z,98552.03
2023-04-17T02:21:34.295Z,98554.75
2023-04-17T02:22:37.116Z,98551.41
2023-04-17T02:23:39.019Z,98548.19
2023-04-17T02:24:41.797Z,98545.13
2023-04-17T02:25:43.621Z,98548.88
2023-04-17T02:26:46.694Z,98545.63
2023-04-17T02:27:49.830Z,98545.81
2023-04-17T02:28:52.649Z,98547.75
2023-04-17T02:29:54.548Z,98548.94
2023-04-17T02:30:57.714Z,98541.50
2023-04-17T02:31:59.567Z,98552.94
2023-04-17T02:33:03.231Z,98547.00
2023-04-17T02:34:06.033Z,98552.38
2023-04-17T02:35:09.842Z,98549.16
2023-04-17T02:36:11.847Z,98548.50
2023-04-17T02:37:17.441Z,98548.69
2023-04-17T02:38:19.304Z,98551.38
2023-04-17T02:39:22.241Z,98551.44
2023-04-17T02:40:24.344Z,98549.69
2023-04-17T02:41:32.678Z,98554.13
2023-04-17T02:42:34.973Z,98550.81
2023-04-17T02:43:40.472Z,98550.91
2023-04-17T02:44:42.365Z,98556.16
2023-04-17T02:45:45.524Z,98550.34
2023-04-17T02:46:48.248Z,98548.03
2023-04-17T02:47:51.548Z,98555.78
2023-04-17T02:48:54.771Z,98557.78
2023-04-17T02:49:56.880Z,98555.69
2023-04-17T02:50:59.794Z,98556.69
2023-04-17T02:52:02.055Z,98562.03
2023-04-17T02:53:05.186Z,98553.81
2023-04-17T02:54:07.131Z,98555.00
2023-04-17T02:55:10.746Z,98561.28
2023-04-17T02:56:14.262Z,98553.03
2023-04-17T02:57:17.158Z,98557.63
2023-04-17T02:58:19.026Z,98557.97
2023-04-17T02:59:23.333Z,98557.41
2023-04-17T03:00:26.352Z,98554.19
2023-04-17T03:01:29.942Z,98556.94
2023-04-17T03:02:32.061Z,98557.84
2023-04-17T03:03:38.753Z,98557.84
2023-04-17T03:04:44.569Z,98553.69
2023-04-17T03:05:47.748Z,98550.38
2023-04-17T03:06:49.625Z,98550.72
2023-04-17T03:07:53.091Z,98549.22
2023-04-17T03:08:54.932Z,98555.31
2023-04-17T03:09:58.970Z,98552.81
2023-04-17T03:11:01.202Z,98553.72
2023-04-17T03:12:05.755Z,98561.56
2023-04-17T03:13:07.576Z,98561.47
2023-04-17T03:14:10.784Z,98573.53
2023-04-17T03:15:14.058Z,98567.38
2023-04-17T03:16:16.969Z,98567.38
2023-04-17T03:17:21.138Z,98569.88
2023-04-17T03:18:24.345Z,98559.56
2023-04-17T03:19:26.195Z,98563.06
2023-04-17T03:20:29.099Z,98568.03
2023-04-17T03:21:31.804Z,98567.88
2023-04-17T03:22:35.436Z,98564.19
2023-04-17T03:23:37.986Z,98568.34
2023-04-17T03:24:42.563Z,98563.19
2023-04-17T03:25:45.329Z,98562.00
2023-04-17T03:26:49.029Z,98570.50
2023-04-17T03:27:54.178Z,98564.41
2023-04-17T03:29:00.654Z,98567.72
2023-04-17T03:30:02.681Z,98578.00
2023-04-17T03:31:08.508Z,98581.41
2023-04-17T03:32:11.057Z,98577.78
2023-04-17T03:33:13.953Z,98579.38
2023-04-17T03:34:16.492Z,98583.44
2023-04-17T03:35:19.667Z,98583.38
2023-04-17T03:36:22.507Z,98576.44
2023-04-17T03:37:24.460Z,98588.28
2023-04-17T03:38:27.287Z,98591.59
2023-04-17T03:39:29.812Z,98587.91
2023-04-17T03:40:33.787Z,98587.72
2023-04-17T03:41:35.719Z,98592.72
2023-04-17T03:42:39.062Z,98590.69
2023-04-17T03:43:41.127Z,98594.78
2023-04-17T03:44:46.652Z,98589.34
2023-04-17T03:45:48.844Z,98585.84
2023-04-17T03:46:53.692Z,98591.66
2023-04-17T03:47:56.427Z,98597.47
2023-04-17T03:48:59.656Z,98598.94
2023-04-17T03:50:02.259Z,98599.59
2023-04-17T03:51:10.423Z,98587.31
2023-04-17T03:52:13.734Z,98586.22
2023-04-17T03:53:17.276Z,98590.13
2023-04-17T03:54:19.689Z,98589.75
2023-04-17T03:55:25.051Z,98588.56
2023-04-17T03:56:27.756Z,98591.59
2023-04-17T03:57:30.678Z,98590.28
2023-04-17T03:58:33.110Z,98592.53
2023-04-17T03:59:36.111Z,98596.41
2023-04-17T04:00:38.619Z,98593.53
2023-04-17T04:01:46.879Z,98587.88
2023-04-17T04:02:54.787Z,98594.34
2023-04-17T04:04:03.559Z,98593.13
2023-04-17T04:05:07.041Z,98599.59
2023-04-17T04:06:10.152Z,98600.13
2023-04-17T04:07:11.989Z,98599.66
2023-04-17T04:08:15.402Z,98603.53
2023-04-17T04:09:22.146Z,98603.94
2023-04-17T04:10:25.211Z,98603.47
2023-04-17T04:11:27.657Z,98602.06
2023-04-17T04:12:31.173Z,98599.00
2023-04-17T04:13:34.036Z,98605.22
2023-04-17T04:14:41.748Z,98604.66
2023-04-17T04:15:44.881Z,98603.13
2023-04-17T04:16:52.918Z,98615.56
2023-04-17T04:17:57.097Z,98609.06
2023-04-17T04:19:00.272Z,98613.59
2023-04-17T04:20:02.378Z,98613.75
2023-04-17T04:21:05.895Z,98617.59
2023-04-17T04:22:13.696Z,98610.16
2023-04-17T04:23:27.948Z,98611.50
2023-04-17T04:24:30.438Z,98616.28
2023-04-17T04:25:34.297Z,98605.59
2023-04-17T04:27:04.723Z,98607.88
2023-04-17T04:28:10.441Z,98618.66
2023-04-17T04:29:13.859Z,98614.81
2023-04-17T04:30:38.849Z,98610.97
2023-04-17T04:31:51.091Z,98619.97
2023-04-17T04:33:01.103Z,98616.97
2023-04-17T04:34:04.132Z,98617.38
2023-04-17T04:35:07.538Z,98612.69
2023-04-17T04:36:14.013Z,98613.22
2023-04-17T04:37:22.029Z,98612.88
2023-04-17T04:38:30.032Z,98610.69
2023-04-17T04:39:34.738Z,98607.75
2023-04-17T04:40:38.381Z,98617.00
2023-04-17T04:41:46.557Z,98615.81
2023-04-17T04:42:51.160Z,98612.00
2023-04-17T04:43:57.633Z,98614.03
2023-04-17T04:45:00.652Z,98609.22
2023-04-17T04:46:05.389Z,98607.94
2023-04-17T04:47:12.237Z,98612.72
2023-04-17T04:48:15.461Z,98607.91
2023-04-17T04:49:18.268Z,98604.72
2023-04-17T04:50:20.635Z,98612.94
2023-04-17T04:51:24.105Z,98607.16
2023-04-17T04:52:26.582Z,98603.28
2023-04-17T04:53:33.197Z,98605.41
2023-04-17T04:54:35.254Z,98604.84
2023-04-17T04:55:40.331Z,98601.81
2023-04-17T04:56:44.941Z,98600.38
2023-04-17T04:57:53.312Z,98607.63
2023-04-17T04:58:56.512Z,98610.47
2023-04-17T04:59:59.725Z,98607.06
2023-04-17T05:01:07.855Z,98608.94
2023-04-17T05:02:19.453Z,98601.41
2023-04-17T05:03:25.102Z,98610.28
2023-04-17T05:04:30.731Z,98614.69
2023-04-17T05:05:36.058Z,98614.81
2023-04-17T05:06:42.024Z,98609.81
2023-04-17T05:07:44.424Z,98611.72
2023-04-17T05:08:51.499Z,98614.28
2023-04-17T05:09:54.136Z,98617.59
2023-04-17T05:10:57.777Z,98617.19
2023-04-17T05:12:00.027Z,98621.19
2023-04-17T05:13:03.692Z,98621.69
2023-04-17T05:14:06.219Z,98622.22
2023-04-17T05:15:13.034Z,98626.31
2023-04-17T05:16:15.280Z,98618.44
2023-04-17T05:17:18.743Z,98633.19
2023-04-17T05:18:21.814Z,98635.19
2023-04-17T05:19:26.711Z,98628.63
2023-04-17T05:20:36.212Z,98622.50
2023-04-17T05:21:39.914Z,98628.03
2023-04-17T05:22:44.189Z,98622.59
2023-04-17T05:23:48.101Z,98628.50
2023-04-17T05:24:51.271Z,98630.03
2023-04-17T05:25:53.427Z,98626.47
2023-04-17T05:26:57.196Z,98624.53
2023-04-17T05:27:59.407Z,98623.47
2023-04-17T05:29:03.545Z,98625.78
2023-04-17T05:30:10.358Z,98626.38
2023-04-17T05:31:13.772Z,98619.13
2023-04-17T05:32:17.682Z,98618.16
2023-04-17T05:33:29.501Z,98625.69
2023-04-17T05:34:37.259Z,98620.22
2023-04-17T05:35:41.289Z,98626.13
2023-04-17T05:36:43.941Z,98628.50
2023-04-17T05:37:46.935Z,98629.75
2023-04-17T05:38:50.018Z,98624.00
2023-04-17T05:39:52.793Z,98625.13
2023-04-17T05:40:56.390Z,98625.28
2023-04-17T05:41:58.535Z,98622.72
2023-04-17T05:43:08.337Z,98629.50
2023-04-17T05:44:12.462Z,98622.75
2023-04-17T05:45:14.986Z,98620.00
2023-04-17T05:46:18.429Z,98631.13
2023-04-17T05:47:20.806Z,98629.16
2023-04-17T05:48:24.491Z,98632.63
2023-04-17T05:49:27.745Z,98622.91
2023-04-17T05:50:31.992Z,98626.00
2023-04-17T05:51:33.899Z,98621.34
2023-04-17T05:52:39.150Z,98622.28
2023-04-17T05:53:44.775Z,98623.19
2023-04-17T05:54:46.567Z,98621.41
2023-04-17T05:55:49.623Z,98617.69
2023-04-17T05:56:51.969Z,98616.69
2023-04-17T05:57:58.059Z,98609.59
2023-04-17T05:59:00.855Z,98610.34
2023-04-17T06:00:10.498Z,98611.06
2023-04-17T06:01:20.617Z,98618.97
2023-04-17T06:02:26.939Z,98618.31
2023-04-17T06:03:30.179Z,98615.81
2023-04-17T06:04:43.209Z,98615.00
2023-04-17T06:05:47.275Z,98616.47
2023-04-17T06:06:50.293Z,98607.75
2023-04-17T06:07:52.424Z,98616.09
2023-04-17T06:08:57.867Z,98610.94
2023-04-17T06:10:02.790Z,98611.38
2023-04-17T06:11:06.680Z,98623.66
2023-04-17T06:12:15.761Z,98625.06
2023-04-17T06:13:19.981Z,98617.97
2023-04-17T06:14:24.559Z,98613.03
2023-04-17T06:15:28.004Z,98619.78
2023-04-17T06:16:29.918Z,98617.00
2023-04-17T06:17:32.736Z,98618.16
2023-04-17T06:18:35.226Z,98619.72
2023-04-17T06:19:38.073Z,98618.31
2023-04-17T06:20:42.032Z,98619.22
2023-04-17T06:21:46.377Z,98620.75
2023-04-17T06:22:49.033Z,98622.28
2023-04-17T06:23:52.216Z,98621.75
2023-04-17T06:24:54.102Z,98625.56
2023-04-17T06:25:57.096Z,98634.13
2023-04-17T06:26:58.928Z,98619.03
2023-04-17T06:28:01.803Z,98627.78
2023-04-17T06:29:06.012Z,98620.19
2023-04-17T06:30:10.052Z,98619.03
2023-04-17T06:31:23.898Z,98622.16
2023-04-17T06:32:28.607Z,98627.75
2023-04-17T06:33:30.544Z,98624.66
2023-04-17T06:34:33.901Z,98630.06
2023-04-17T06:35:36.584Z,98636.97
2023-04-17T06:36:57.534Z,98637.75
2023-04-17T06:37:59.424Z,98635.44
2023-04-17T06:39:02.489Z,98634.25
2023-04-17T06:40:07.355Z,98633.41
2023-04-17T06:41:10.680Z,98644.19
2023-04-17T06:42:16.413Z,98638.06
2023-04-17T06:43:18.252Z,98644.53
2023-04-17T06:44:21.137Z,98643.84
2023-04-17T06:45:23.261Z,98651.66
2023-04-17T06:46:26.114Z,98646.22
2023-04-17T06:47:30.652Z,98656.19
2023-04-17T06:48:32.560Z,98653.13
2023-04-17T06:49:36.831Z,98650.25
2023-04-17T06:50:38.794Z,98640.81
2023-04-17T06:51:45.772Z,98647.03
2023-04-17T06:52:48.948Z,98645.81
2023-04-17T06:53:52.451Z,98649.16
2023-04-17T06:54:54.626Z,98647.19
2023-04-17T06:55:57.793Z,98651.13
2023-04-17T06:57:00.974Z,98657.41
2023-04-17T06:58:04.146Z,98655.75
2023-04-17T06:59:06.901Z,98651.94
2023-04-17T07:00:10.049Z,98653.75
2023-04-17T07:01:13.349Z,98650.72
2023-04-17T07:02:15.400Z,98654.28
2023-04-17T07:03:18.396Z,98650.63
2023-04-17T07:04:21.506Z,98659.31
2023-04-17T07:05:24.384Z,98653.44
2023-04-17T07:06:26.737Z,98652.13
2023-04-17T07:07:30.754Z,98663.75
2023-04-17T07:08:34.950Z,98661.09
2023-04-17T07:09:37.169Z,98659.44
2023-04-17T07:10:39.940Z,98658.44
2023-04-17T07:11:41.828Z,98662.94
2023-04-17T07:12:44.649Z,98662.97
2023-04-17T07:13:46.458Z,98660.13
2023-04-17T07:14:49.208Z,98666.06
2023-04-17T07:15:53.304Z,98663.41
2023-04-17T07:16:55.296Z,98665.81
2023-04-17T07:17:58.219Z,98663.91
2023-04-17T07:19:01.525Z,98670.72
2023-04-17T07:20:05.281Z,98666.34
2023-04-17T07:21:08.058Z,98667.44
2023-04-17T07:22:10.229Z,98663.78
2023-04-17T07:23:12.990Z,98659.94
2023-04-17T07:24:17.102Z,98666.78
2023-04-17T07:25:19.872Z,98672.63
2023-04-17T07:26:22.802Z,98670.38
2023-04-17T07:27:24.718Z,98663.16
2023-04-17T07:28:27.532Z,98673.38
2023-04-17T07:29:30.353Z,98667.31
2023-04-17T07:30:32.162Z,98672.56
2023-04-17T07:31:35.328Z,98671.59
2023-04-17T07:32:37.333Z,98676.75
2023-04-17T07:33:40.639Z,98674.13
2023-04-17T07:34:42.965Z,98669.53
2023-04-17T07:35:45.804Z,98668.88
2023-04-17T07:36:49.697Z,98676.44
2023-04-17T07:37:51.935Z,98676.25
2023-04-17T07:38:54.690Z,98670.97
2023-04-17T07:39:58.817Z,98670.97
2023-04-17T07:41:00.846Z,98675.44
2023-04-17T07:42:06.486Z,98671.16
2023-04-17T07:43:09.348Z,98669.84
2023-04-17T07:44:11.328Z,98665.91
2023-04-17T07:45:14.263Z,98668.69
2023-04-17T07:46:17.141Z,98662.97
2023-04-17T07:47:20.079Z,98668.88
2023-04-17T07:48:22.923Z,98673.66
2023-04-17T07:49:25.850Z,98668.88
2023-04-17T07:50:29.036Z,98660.78
2023-04-17T07:51:32.837Z,98666.25
2023-04-17T07:52:34.619Z,98658.84
2023-04-17T07:53:38.655Z,98673.66
2023-04-17T07:54:40.458Z,98661.47
2023-04-17T07:55:44.611Z,98670.72
2023-04-17T07:56:46.825Z,98673.84
2023-04-17T07:57:51.594Z,98666.94
2023-04-17T07:58:54.418Z,98672.03
2023-04-17T07:59:57.262Z,98672.03
2023-04-17T08:01:00.032Z,98665.78
2023-04-17T08:02:02.925Z,98669.22
2023-04-17T08:03:06.203Z,98677.13
2023-04-17T08:04:09.586Z,98678.44
2023-04-17T08:05:12.019Z,98674.50
2023-04-17T08:06:15.499Z,98681.22
2023-04-17T08:07:18.318Z,98677.25
2023-04-17T08:08:22.819Z,98677.38
2023-04-17T08:09:25.953Z,98674.25
2023-04-17T08:10:29.206Z,98681.53
2023-04-17T08:11:42.752Z,98671.97
2023-04-17T08:12:52.859Z,98672.97
2023-04-17T08:13:56.086Z,98673.47
2023-04-17T08:14:59.266Z,98680.06
2023-04-17T08:16:02.525Z,98671.84
2023-04-17T08:17:04.626Z,98676.13
2023-04-17T08:18:07.711Z,98675.13
2023-04-17T08:19:09.724Z,98678.78
2023-04-17T08:20:12.884Z,98676.63
2023-04-17T08:21:14.808Z,98685.00
2023-04-17T08:22:19.621Z,98680.56
2023-04-17T08:23:22.547Z,98676.47
2023-04-17T08:24:24.444Z,98686.19
2023-04-17T08:25:27.380Z,98681.22
2023-04-17T08:26:29.358Z,98677.13
2023-04-17T08:27:33.462Z,98673.19
2023-04-17T08:28:36.688Z,98685.03
2023-04-17T08:29:39.759Z,98687.34
2023-04-17T08:30:42.676Z,98679.25
2023-04-17T08:31:44.518Z,98673.34
2023-04-17T08:32:49.055Z,98675.47
2023-04-17T08:33:59.488Z,98676.75
2023-04-17T08:35:11.326Z,98671.53
2023-04-17T08:36:14.225Z,98676.50
2023-04-17T08:37:17.050Z,98683.41
2023-04-17T08:38:19.908Z,98678.16
2023-04-17T08:39:21.704Z,98669.34
2023-04-17T08:40:26.187Z,98675.63
2023-04-17T08:41:35.762Z,98673.69
2023-04-17T08:42:43.456Z,98676.00
2023-04-17T08:43:49.260Z,98674.44
2023-04-17T08:44:52.163Z,98672.81
2023-04-17T08:45:55.596Z,98672.56
2023-04-17T08:46:58.288Z,98673.28
2023-04-17T08:48:01.215Z,98679.47
2023-04-17T08:49:03.298Z,98679.19
2023-04-17T08:50:09.602Z,98676.47
2023-04-17T08:51:11.483Z,98683.47
2023-04-17T08:52:14.859Z,98680.78
2023-04-17T08:53:18.190Z,98682.66
2023-04-17T08:54:22.011Z,98684.59
2023-04-17T08:55:28.965Z,98681.53
2023-04-17T08:56:31.018Z,98678.88
2023-04-17T08:57:34.069Z,98684.44
2023-04-17T08:58:38.348Z,98688.34
2023-04-17T08:59:43.043Z,98686.28
2023-04-17T09:00:46.473Z,98684.69
2023-04-17T09:02:01.368Z,98684.06
2023-04-17T09:03:05.512Z,98687.03
2023-04-17T09:04:08.944Z,98691.50
2023-04-17T09:05:19.411Z,98694.63
2023-04-17T09:06:22.211Z,98682.91
2023-04-17T09:07:29.632Z,98682.50
2023-04-17T09:08:32.489Z,98688.25
2023-04-17T09:09:48.266Z,98689.28
2023-04-17T09:10:52.151Z,98682.56
2023-04-17T09:12:10.372Z,98690.44
2023-04-17T09:13:15.125Z,98686.06
2023-04-17T09:14:32.168Z,98691.91
2023-04-17T09:15:35.258Z,98685.03
2023-04-17T09:16:53.070Z,98695.50
2023-04-17T09:17:56.312Z,98691.66
2023-04-17T09:19:06.738Z,98694.72
2023-04-17T09:20:12.492Z,98691.31
2023-04-17T09:21:18.508Z,98688.41
2023-04-17T09:22:21.975Z,98695.56
2023-04-17T09:23:24.888Z,98695.63
2023-04-17T09:24:34.395Z,98688.00
2023-04-17T09:25:37.534Z,98684.22
2023-04-17T09:26:40.307Z,98688.91
2023-04-17T09:27:42.270Z,98691.22
2023-04-17T09:29:07.586Z,98677.38
2023-04-17T09:30:13.318Z,98687.09
2023-04-17T09:31:28.504Z,98679.94
2023-04-17T09:32:31.685Z,98685.31
2023-04-17T09:33:34.546Z,98682.03
2023-04-17T09:34:40.683Z,98678.72
2023-04-17T09:35:43.680Z,98680.28
2023-04-17T09:36:45.543Z,98690.94
2023-04-17T09:37:49.877Z,98676.53
2023-04-17T09:38:52.695Z,98679.28
2023-04-17T09:39:59.425Z,98678.00
2023-04-17T09:41:02.241Z,98683.97
2023-04-17T09:42:06.169Z,98674.81
2023-04-17T09:43:10.716Z,98684.03
2023-04-17T09:44:25.591Z,98680.09
2023-04-17T09:45:36.005Z,98670.78
2023-04-17T09:46:38.930Z,98685.31
2023-04-17T09:47:44.724Z,98682.91
2023-04-17T09:48:47.177Z,98669.69
2023-04-17T09:49:52.592Z,98670.97
2023-04-17T09:50:56.255Z,98677.56
2023-04-17T09:51:58.720Z,98673.66
2023-04-17T09:53:02.475Z,98681.50
2023-04-17T09:54:05.588Z,98674.00
2023-04-17T09:55:10.480Z,98677.88
2023-04-17T09:56:13.564Z,98673.88
2023-04-17T09:57:16.770Z,98674.25
2023-04-17T09:58:19.729Z,98677.03
2023-04-17T09:59:23.516Z,98678.41
2023-04-17T10:00:28.131Z,98675.22
2023-04-17T10:01:32.566Z,98678.97
2023-04-17T10:02:35.680Z,98679.88
2023-04-17T10:03:38.965Z,98680.91
2023-04-17T10:04:41.446Z,98667.44
2023-04-17T10:05:44.271Z,98673.84
2023-04-17T10:06:46.440Z,98680.03
2023-04-17T10:07:49.213Z,98680.09
2023-04-17T10:08:51.752Z,98680.91
2023-04-17T10:09:54.581Z,98681.66
2023-04-17T10:11:04.043Z,98683.16
2023-04-17T10:12:07.939Z,98678.13
2023-04-17T10:13:12.526Z,98687.50
2023-04-17T10:14:20.651Z,98685.59
2023-04-17T10:15:24.590Z,98683.03
2023-04-17T10:16:35.775Z,98691.78
2023-04-17T10:17:38.688Z,98695.13
2023-04-17T10:18:41.680Z,98691.41
2023-04-17T10:19:45.220Z,98692.75
2023-04-17T10:20:48.475Z,98700.13
2023-04-17T10:22:25.024Z,98697.63
2023-04-17T10:23:33.078Z,98701.06
2023-04-17T10:24:35.055Z,98694.53
2023-04-17T10:25:37.921Z,98696.06
2023-04-17T10:26:39.775Z,98694.13
2023-04-17T10:27:47.210Z,98684.91
2023-04-17T10:28:49.767Z,98683.38
2023-04-17T10:29:56.129Z,98685.69
2023-04-17T10:31:01.529Z,98680.31
2023-04-17T10:32:26.323Z,98680.22
2023-04-17T10:33:29.318Z,98678.94
2023-04-17T10:34:35.186Z,98671.03
2023-04-17T10:35:38.087Z,98685.81
2023-04-17T10:36:50.676Z,98687.38
2023-04-17T10:38:03.835Z,98684.84
2023-04-17T10:39:14.087Z,98685.28
2023-04-17T10:40:21.142Z,98684.31
2023-04-17T10:41:24.904Z,98675.91
2023-04-17T10:42:29.337Z,98681.63
2023-04-17T10:43:32.690Z,98685.25
2023-04-17T10:44:34.576Z,98691.50
2023-04-17T10:45:54.129Z,98681.59
2023-04-17T10:46:57.025Z,98682.03
2023-04-17T10:48:00.451Z,98679.03
2023-04-17T10:49:05.296Z,98683.56
2023-04-17T10:50:10.073Z,98686.31
2023-04-17T10:51:41.478Z,98682.56
2023-04-17T10:52:45.075Z,98687.56
2023-04-17T10:53:47.643Z,98683.66
2023-04-17T10:55:08.909Z,98693.41
2023-04-17T10:56:12.686Z,98692.28
2023-04-17T10:57:15.918Z,98685.03
2023-04-17T10:58:19.097Z,98692.13
2023-04-17T10:59:23.441Z,98689.97
2023-04-17T11:00:30.934Z,98691.91
2023-04-17T11:01:40.423Z,98694.97
2023-04-17T11:02:45.503Z,98699.03
2023-04-17T11:03:49.795Z,98709.00
2023-04-17T11:05:07.379Z,98701.31
2023-04-17T11:06:09.346Z,98712.75
2023-04-17T11:07:13.557Z,98705.59
2023-04-17T11:08:15.551Z,98705.28
2023-04-17T11:09:21.773Z,98710.78
2023-04-17T11:10:24.007Z,98707.56
2023-04-17T11:11:42.958Z,98716.50
2023-04-17T11:12:49.879Z,98701.59
2023-04-17T11:13:51.681Z,98711.63
2023-04-17T11:14:54.473Z,98713.00
2023-04-17T11:15:56.697Z,98711.53
2023-04-17T11:16:59.532Z,98720.03
2023-04-17T11:18:03.248Z,98711.16
2023-04-17T11:19:06.640Z,98714.13
2023-04-17T11:20:11.171Z,98708.38
2023-04-17T11:21:13.605Z,98720.53
2023-04-17T11:22:19.321Z,98712.56
2023-04-17T11:23:22.150Z,98713.00
2023-04-17T11:24:24.109Z,98712.28
2023-04-17T11:25:30.169Z,98708.19
2023-04-17T11:26:32.947Z,98706.53
2023-04-17T11:27:34.785Z,98710.94
2023-04-17T11:28:38.276Z,98701.41
2023-04-17T11:29:40.030Z,98706.13
2023-04-17T11:30:45.055Z,98707.38
2023-04-17T11:31:48.164Z,98706.56
2023-04-17T11:32:51.877Z,98702.13
2023-04-17T11:33:54.822Z,98708.59
2023-04-17T11:34:59.243Z,98704.59
2023-04-17T11:36:02.344Z,98704.31
2023-04-17T11:37:05.544Z,98705.53
2023-04-17T11:38:11.377Z,98714.75
2023-04-17T11:39:16.112Z,98703.81
2023-04-17T11:40:23.996Z,98703.41
2023-04-17T11:41:36.961Z,98699.38
2023-04-17T11:42:44.649Z,98697.16
2023-04-17T11:43:47.630Z,98700.84
2023-04-17T11:44:49.768Z,98698.19
2023-04-17T11:45:54.086Z,98700.59
2023-04-17T11:46:58.280Z,98697.97
2023-04-17T11:48:02.317Z,98707.69
2023-04-17T11:49:05.197Z,98699.56
2023-04-17T11:50:09.159Z,98700.91
2023-04-17T11:51:13.474Z,98702.41
2023-04-17T11:52:17.691Z,98704.75
2023-04-17T11:53:20.874Z,98701.56
2023-04-17T11:54:26.581Z,98706.59
2023-04-17T11:55:31.275Z,98704.56
2023-04-17T11:56:34.120Z,98697.16
2023-04-17T11:57:41.394Z,98706.56
2023-04-17T11:58:48.774Z,98696.09
2023-04-17T11:59:50.567Z,98703.03
2023-04-17T12:01:05.438Z,98707.34
2023-04-17T12:02:09.245Z,98706.28
2023-04-17T12:03:34.829Z,98706.84
2023-04-17T12:04:38.249Z,98704.81
2023-04-17T12:05:42.527Z,98713.91
2023-04-17T12:06:45.322Z,98709.94
2023-04-17T12:07:47.178Z,98709.41
2023-04-17T12:08:51.282Z,98707.06
2023-04-17T12:09:57.473Z,98706.38
2023-04-17T12:11:00.323Z,98706.66
2023-04-17T12:12:04.790Z,98715.63
2023-04-17T12:13:08.077Z,98711.38
2023-04-17T12:14:12.577Z,98710.41
2023-04-17T12:15:14.776Z,98714.81
2023-04-17T12:16:17.906Z,98715.63
2023-04-17T12:17:21.668Z,98712.34
2023-04-17T12:18:24.871Z,98714.97
2023-04-17T12:19:29.941Z,98709.72
2023-04-17T12:20:34.833Z,98715.09
2023-04-17T12:21:38.948Z,98715.09
2023-04-17T12:22:40.755Z,98710.56
2023-04-17T12:23:44.081Z,98715.38
2023-04-17T12:24:46.021Z,98716.59
2023-04-17T12:25:48.787Z,98716.00
2023-04-17T12:26:52.372Z,98717.22
2023-04-17T12:27:56.008Z,98713.06
2023-04-17T12:28:58.801Z,98710.56
2023-04-17T12:30:00.740Z,98716.84
2023-04-17T12:31:03.975Z,98710.91
2023-04-17T12:32:06.509Z,98705.63
2023-04-17T12:33:09.972Z,98715.38
2023-04-17T12:34:12.123Z,98707.75
2023-04-17T12:35:15.268Z,98706.22